sensor_id;sensor_type;location;lat;lon;timestamp;pressure;altitude;pressure_sealevel;temperature;humidity
44920;BME280;30655;53.094;6.072;2022-11-20T00:35:01;101434.38;;;0.32;81.56
44920;BME280;30655;53.094;6.072;2022-11-20T00:38:03;101430.72;;;0.33;81.67
44920;BME280;30655;53.094;6.072;2022-11-20T05:57:12;101290.94;;;0.45;85.11
44920;BME280;30655;53.094;6.072;2022-11-20T06:44:20;101219.28;;;0.16;83.46
44920;BME280;30655;53.094;6.072;2022-11-20T06:47:31;101126.34;;;-0.63;83.19
44920;BME280;30655;53.094;6.072;2022-11-20T06:50:29;101250.69;;;0.27;83.13
44920;BME280;30655;53.094;6.072;2022-11-20T06:53:38;101299.63;;;0.54;83.15
44920;BME280;30655;53.094;6.072;2022-11-20T07:00:31;101297.72;;;0.48;83.21
44920;BME280;30655;53.094;6.072;2022-11-20T07:03:58;101293.16;;;0.41;83.68
44920;BME280;30655;53.094;6.072;2022-11-20T07:20:59;101096.50;;;-0.86;83.65
44920;BME280;30655;53.094;6.072;2022-11-20T07:23:45;101123.13;;;-0.58;83.01
44920;BME280;30655;53.094;6.072;2022-11-20T07:26:56;101304.63;;;0.63;83.27
44920;BME280;30655;53.094;6.072;2022-11-20T07:33:35;101290.16;;;0.72;82.93
44920;BME280;30655;53.094;6.072;2022-11-20T07:36:55;101225.44;;;0.37;82.51
44920;BME280;30655;53.094;6.072;2022-11-20T07:47:42;101067.09;;;-0.70;82.14
44920;BME280;30655;53.094;6.072;2022-11-20T07:58:03;101074.47;;;-0.65;82.43
44920;BME280;30655;53.094;6.072;2022-11-20T08:01:17;101271.59;;;0.79;82.27
44920;BME280;30655;53.094;6.072;2022-11-20T08:04:34;101059.06;;;-0.55;82.28
44920;BME280;30655;53.094;6.072;2022-11-20T08:14:46;101219.84;;;0.54;82.13
44920;BME280;30655;53.094;6.072;2022-11-20T08:20:47;101185.06;;;0.27;81.51
44920;BME280;30655;53.094;6.072;2022-11-20T08:23:28;101219.31;;;0.65;82.05
44920;BME280;30655;53.094;6.072;2022-11-20T08:26:11;101214.41;;;0.68;81.91
44920;BME280;30655;53.094;6.072;2022-11-20T08:28:53;101096.63;;;-0.09;81.65
44920;BME280;30655;53.094;6.072;2022-11-20T08:31:54;101035.84;;;-0.47;81.73
44920;BME280;30655;53.094;6.072;2022-11-20T08:34:58;101277.13;;;1.12;81.87
44920;BME280;30655;53.094;6.072;2022-11-20T08:37:40;101197.09;;;0.79;81.09
44920;BME280;30655;53.094;6.072;2022-11-20T08:41:04;101258.75;;;1.17;81.06
44920;BME280;30655;53.094;6.072;2022-11-20T08:44:18;101166.19;;;0.78;81.22
44920;BME280;30655;53.094;6.072;2022-11-20T08:51:13;101020.56;;;-0.17;80.44
44920;BME280;30655;53.094;6.072;2022-11-20T08:57:25;101036.19;;;0.27;80.32
44920;BME280;30655;53.094;6.072;2022-11-20T09:00:49;101025.09;;;0.17;79.82
44920;BME280;30655;53.094;6.072;2022-11-20T09:10:20;101059.88;;;0.57;80.05
44920;BME280;30655;53.094;6.072;2022-11-20T09:13:07;101248.38;;;1.83;78.27
44920;BME280;30655;53.094;6.072;2022-11-20T09:15:36;101193.38;;;1.62;79.97
44920;BME280;30655;53.094;6.072;2022-11-20T09:18:18;101162.41;;;1.48;79.41
44920;BME280;30655;53.094;6.072;2022-11-20T09:21:09;101030.06;;;0.68;78.10
44920;BME280;30655;53.094;6.072;2022-11-20T09:23:54;101165.50;;;1.58;78.91
44920;BME280;30655;53.094;6.072;2022-11-20T09:26:50;101010.78;;;0.66;79.31
44920;BME280;30655;53.094;6.072;2022-11-20T09:29:25;101029.72;;;0.91;78.58
44920;BME280;30655;53.094;6.072;2022-11-20T09:32:20;101257.13;;;2.37;78.84
44920;BME280;30655;53.094;6.072;2022-11-20T09:34:55;101223.03;;;2.20;79.23
44920;BME280;30655;53.094;6.072;2022-11-20T09:37:45;101045.00;;;1.29;78.65
44920;BME280;30655;53.094;6.072;2022-11-20T09:43:44;101122.09;;;1.90;78.29
44920;BME280;30655;53.094;6.072;2022-11-20T09:46:53;101180.34;;;2.20;77.60
44920;BME280;30655;53.094;6.072;2022-11-20T09:53:41;101129.69;;;1.87;76.95
44920;BME280;30655;53.094;6.072;2022-11-20T09:57:19;101042.53;;;1.48;77.35
44920;BME280;30655;53.094;6.072;2022-11-20T10:00:35;101089.50;;;1.88;76.27
44920;BME280;30655;53.094;6.072;2022-11-20T10:06:47;101188.56;;;2.57;77.31
44920;BME280;30655;53.094;6.072;2022-11-20T10:16:30;101211.47;;;3.18;76.59
44920;BME280;30655;53.094;6.072;2022-11-20T10:19:30;101225.41;;;3.26;76.78
44920;BME280;30655;53.094;6.072;2022-11-20T10:22:40;101218.00;;;3.28;75.99
44920;BME280;30655;53.094;6.072;2022-11-20T10:25:28;101215.53;;;3.33;77.03
44920;BME280;30655;53.094;6.072;2022-11-20T10:28:54;101174.72;;;3.07;75.63
44920;BME280;30655;53.094;6.072;2022-11-20T10:31:47;101031.84;;;2.33;74.43
44920;BME280;30655;53.094;6.072;2022-11-20T10:34:44;101209.66;;;3.56;76.19
44920;BME280;30655;53.094;6.072;2022-11-20T10:37:17;101163.69;;;3.41;76.27
44920;BME280;30655;53.094;6.072;2022-11-20T10:39:58;101108.69;;;3.27;75.46
44920;BME280;30655;53.094;6.072;2022-11-20T10:42:59;100965.78;;;2.29;72.45
44920;BME280;30655;53.094;6.072;2022-11-20T10:46:07;101093.03;;;3.30;74.29
44920;BME280;30655;53.094;6.072;2022-11-20T10:48:48;101120.84;;;3.54;75.13
44920;BME280;30655;53.094;6.072;2022-11-20T10:51:31;101070.25;;;3.28;74.71
44920;BME280;30655;53.094;6.072;2022-11-20T10:54:17;100950.47;;;2.62;75.50
44920;BME280;30655;53.094;6.072;2022-11-20T10:57:03;100988.94;;;2.79;75.27
44920;BME280;30655;53.094;6.072;2022-11-20T10:59:55;101119.50;;;3.76;73.77
44920;BME280;30655;53.094;6.072;2022-11-20T11:05:34;100950.25;;;2.95;72.04
44920;BME280;30655;53.094;6.072;2022-11-20T11:08:10;101097.13;;;3.96;72.69
44920;BME280;30655;53.094;6.072;2022-11-20T11:10:50;101037.63;;;3.51;70.92
44920;BME280;30655;53.094;6.072;2022-11-20T11:13:30;101150.91;;;4.37;71.44
44920;BME280;30655;53.094;6.072;2022-11-20T11:16:40;100937.84;;;3.14;69.90
44920;BME280;30655;53.094;6.072;2022-11-20T11:19:21;101145.09;;;4.40;68.07
44920;BME280;30655;53.094;6.072;2022-11-20T11:22:11;101107.16;;;4.25;69.21
44920;BME280;30655;53.094;6.072;2022-11-20T11:24:58;100903.56;;;3.04;68.66
44920;BME280;30655;53.094;6.072;2022-11-20T11:27:31;100938.16;;;3.24;68.05
44920;BME280;30655;53.094;6.072;2022-11-20T11:30:26;100922.94;;;3.24;66.20
44920;BME280;30655;53.094;6.072;2022-11-20T11:33:17;100921.88;;;3.32;67.58
44920;BME280;30655;53.094;6.072;2022-11-20T11:35:56;100893.38;;;3.19;67.61
44920;BME280;30655;53.094;6.072;2022-11-20T11:38:53;101033.88;;;4.08;66.18
44920;BME280;30655;53.094;6.072;2022-11-20T11:41:37;101018.84;;;4.07;67.18
44920;BME280;30655;53.094;6.072;2022-11-20T11:44:20;100919.72;;;3.40;64.51
44920;BME280;30655;53.094;6.072;2022-11-20T11:46:56;101101.81;;;4.68;66.71
44920;BME280;30655;53.094;6.072;2022-11-20T11:49:29;100902.16;;;3.51;67.06
44920;BME280;30655;53.094;6.072;2022-11-20T11:52:10;101044.31;;;4.52;65.46
44920;BME280;30655;53.094;6.072;2022-11-20T11:54:49;101063.81;;;4.78;66.53
44920;BME280;30655;53.094;6.072;2022-11-20T11:57:27;101076.13;;;4.78;64.90
44920;BME280;30655;53.094;6.072;2022-11-20T12:00:02;101025.84;;;4.81;65.66
44920;BME280;30655;53.094;6.072;2022-11-20T12:02:49;100952.28;;;4.83;65.07
44920;BME280;30655;53.094;6.072;2022-11-20T12:05:28;101028.66;;;5.98;65.49
44920;BME280;30655;53.094;6.072;2022-11-20T12:08:17;101059.81;;;6.34;63.89
44920;BME280;30655;53.094;6.072;2022-11-20T12:10:59;100869.66;;;5.10;61.97
44920;BME280;30655;53.094;6.072;2022-11-20T12:13:55;101076.50;;;6.25;61.08
44920;BME280;30655;53.094;6.072;2022-11-20T12:16:55;101067.75;;;6.06;61.35
44920;BME280;30655;53.094;6.072;2022-11-20T12:23:00;101011.41;;;5.41;62.96
44920;BME280;30655;53.094;6.072;2022-11-20T12:25:30;100940.00;;;5.05;63.65
44920;BME280;30655;53.094;6.072;2022-11-20T12:28:34;100854.63;;;4.56;60.35
44920;BME280;30655;53.094;6.072;2022-11-20T12:31:18;100917.19;;;5.03;61.82
44920;BME280;30655;53.094;6.072;2022-11-20T12:34:13;100836.00;;;4.49;61.46
44920;BME280;30655;53.094;6.072;2022-11-20T12:36:52;100954.53;;;5.28;62.54
44920;BME280;30655;53.094;6.072;2022-11-20T12:39:49;101036.19;;;5.67;61.38
44920;BME280;30655;53.094;6.072;2022-11-20T12:42:27;100923.75;;;4.89;61.46
44920;BME280;30655;53.094;6.072;2022-11-20T12:45:34;100863.44;;;4.45;60.80
44920;BME280;30655;53.094;6.072;2022-11-20T12:48:44;101005.78;;;5.31;61.00
44920;BME280;30655;53.094;6.072;2022-11-20T12:51:30;100938.53;;;4.80;61.83
44920;BME280;30655;53.094;6.072;2022-11-20T12:54:08;100807.13;;;3.92;60.94
44920;BME280;30655;53.094;6.072;2022-11-20T12:56:53;100965.41;;;4.73;60.60
44920;BME280;30655;53.094;6.072;2022-11-20T12:59:38;100797.22;;;3.62;60.37
44920;BME280;30655;53.094;6.072;2022-11-20T13:02:27;100810.59;;;3.62;60.97
44920;BME280;30655;53.094;6.072;2022-11-20T13:05:11;101013.34;;;4.93;61.10
44920;BME280;30655;53.094;6.072;2022-11-20T13:07:48;100819.75;;;3.84;61.58
44920;BME280;30655;53.094;6.072;2022-11-20T13:10:31;100942.16;;;4.55;61.40
44920;BME280;30655;53.094;6.072;2022-11-20T13:13:10;100774.66;;;3.58;60.64
44920;BME280;30655;53.094;6.072;2022-11-20T13:15:48;100862.09;;;4.06;60.04
44920;BME280;30655;53.094;6.072;2022-11-20T13:18:23;100774.94;;;3.50;60.60
44920;BME280;30655;53.094;6.072;2022-11-20T13:20:58;100759.78;;;3.26;60.50
44920;BME280;30655;53.094;6.072;2022-11-20T13:23:26;100765.06;;;3.32;60.68
44920;BME280;30655;53.094;6.072;2022-11-20T13:26:14;100979.16;;;4.58;60.55
44920;BME280;30655;53.094;6.072;2022-11-20T13:29:08;100762.91;;;3.23;59.51
44920;BME280;30655;53.094;6.072;2022-11-20T13:31:43;100754.09;;;3.22;60.28
44920;BME280;30655;53.094;6.072;2022-11-20T13:34:24;100829.44;;;3.67;60.51
44920;BME280;30655;53.094;6.072;2022-11-20T13:36:59;100904.16;;;4.17;60.48
44920;BME280;30655;53.094;6.072;2022-11-20T13:39:37;100720.59;;;3.01;61.30
44920;BME280;30655;53.094;6.072;2022-11-20T13:42:22;100924.94;;;4.33;60.57
44920;BME280;30655;53.094;6.072;2022-11-20T13:45:00;100740.13;;;3.20;61.01
44920;BME280;30655;53.094;6.072;2022-11-20T13:47:47;100889.59;;;4.13;61.66
44920;BME280;30655;53.094;6.072;2022-11-20T13:50:44;100802.94;;;3.66;61.68
44920;BME280;30655;53.094;6.072;2022-11-20T13:53:47;100764.56;;;3.42;60.94
44920;BME280;30655;53.094;6.072;2022-11-20T13:56:38;100800.47;;;3.64;62.21
44920;BME280;30655;53.094;6.072;2022-11-20T13:59:28;100724.78;;;3.16;62.11
44920;BME280;30655;53.094;6.072;2022-11-20T14:02:25;100699.09;;;2.96;61.13
44920;BME280;30655;53.094;6.072;2022-11-20T14:04:57;100863.28;;;3.92;62.06
44920;BME280;30655;53.094;6.072;2022-11-20T14:07:45;100792.38;;;3.34;61.41
44920;BME280;30655;53.094;6.072;2022-11-20T14:10:29;100699.13;;;2.72;62.28
44920;BME280;30655;53.094;6.072;2022-11-20T14:13:10;100692.97;;;2.71;61.69
44920;BME280;30655;53.094;6.072;2022-11-20T14:15:45;100691.34;;;2.70;62.53
44920;BME280;30655;53.094;6.072;2022-11-20T14:18:29;100684.91;;;2.78;62.55
44920;BME280;30655;53.094;6.072;2022-11-20T14:21:02;100761.44;;;3.27;62.89
44920;BME280;30655;53.094;6.072;2022-11-20T14:23:40;100836.56;;;3.73;63.19
44920;BME280;30655;53.094;6.072;2022-11-20T14:26:23;100787.69;;;3.30;62.83
44920;BME280;30655;53.094;6.072;2022-11-20T14:29:03;100849.03;;;3.61;63.51
44920;BME280;30655;53.094;6.072;2022-11-20T14:31:39;100720.00;;;2.99;63.19
44920;BME280;30655;53.094;6.072;2022-11-20T14:45:16;100863.16;;;3.68;63.71
44920;BME280;30655;53.094;6.072;2022-11-20T14:47:49;100719.28;;;2.92;63.67
44920;BME280;30655;53.094;6.072;2022-11-20T14:50:32;100648.16;;;2.37;64.66
44920;BME280;30655;53.094;6.072;2022-11-20T14:53:24;100638.81;;;2.28;64.06
44920;BME280;30655;53.094;6.072;2022-11-20T14:56:03;100755.84;;;3.10;64.83
44920;BME280;30655;53.094;6.072;2022-11-20T14:58:32;100676.81;;;2.66;64.72
44920;BME280;30655;53.094;6.072;2022-11-20T15:01:06;100718.50;;;2.85;64.14
44920;BME280;30655;53.094;6.072;2022-11-20T15:03:37;100632.59;;;2.34;64.53
44920;BME280;30655;53.094;6.072;2022-11-20T15:06:10;100639.53;;;2.35;64.18
44920;BME280;30655;53.094;6.072;2022-11-20T15:08:50;100638.66;;;2.41;64.84
44920;BME280;30655;53.094;6.072;2022-11-20T15:21:47;100692.09;;;2.77;65.15
44920;BME280;30655;53.094;6.072;2022-11-20T15:24:18;100821.13;;;3.57;64.80
44920;BME280;30655;53.094;6.072;2022-11-20T15:29:59;100679.34;;;2.79;64.79
44920;BME280;30655;53.094;6.072;2022-11-20T15:32:38;100588.22;;;2.39;64.89
44920;BME280;30655;53.094;6.072;2022-11-20T15:35:27;100558.84;;;2.21;65.03
44920;BME280;30655;53.094;6.072;2022-11-20T15:38:36;100776.56;;;3.69;65.11
44920;BME280;30655;53.094;6.072;2022-11-20T15:44:49;100733.44;;;3.29;65.73
44920;BME280;30655;53.094;6.072;2022-11-20T15:51:03;100600.50;;;2.40;65.86
44920;BME280;30655;53.094;6.072;2022-11-20T15:53:40;100656.81;;;2.75;65.92
44920;BME280;30655;53.094;6.072;2022-11-20T15:56:29;100562.69;;;2.07;65.99
44920;BME280;30655;53.094;6.072;2022-11-20T15:59:34;100809.09;;;3.48;66.12
44920;BME280;30655;53.094;6.072;2022-11-20T16:02:15;100783.97;;;3.49;66.38
44920;BME280;30655;53.094;6.072;2022-11-20T16:08:06;100626.25;;;2.53;66.56
44920;BME280;30655;53.094;6.072;2022-11-20T16:17:21;100575.47;;;1.98;66.54
44920;BME280;30655;53.094;6.072;2022-11-20T16:20:14;100575.34;;;1.87;66.27
44920;BME280;30655;53.094;6.072;2022-11-20T16:23:19;100806.53;;;3.35;66.61
44920;BME280;30655;53.094;6.072;2022-11-20T16:29:37;100750.91;;;3.14;67.59
44920;BME280;30655;53.094;6.072;2022-11-20T18:14:09;100557.69;;;1.92;72.17
44920;BME280;30655;53.094;6.072;2022-11-20T18:24:00;100553.34;;;1.98;71.75
44920;BME280;30655;53.094;6.072;2022-11-20T18:26:43;100686.56;;;2.97;71.89
44920;BME280;30655;53.094;6.072;2022-11-20T19:01:04;100667.81;;;3.03;72.94
44920;BME280;30655;53.094;6.072;2022-11-20T19:31:53;100693.25;;;2.88;74.65
44920;BME280;30655;53.094;6.072;2022-11-20T21:22:27;100713.34;;;3.27;76.44
44920;BME280;30655;53.094;6.072;2022-11-20T21:28:15;100704.88;;;3.30;76.18
44920;BME280;30655;53.094;6.072;2022-11-20T21:47:02;100583.81;;;2.27;75.65
44920;BME280;30655;53.094;6.072;2022-11-20T22:42:08;100721.53;;;3.14;78.19
44920;BME280;30655;53.094;6.072;2022-11-20T22:50:22;100523.75;;;1.81;77.79
44920;BME280;30655;53.094;6.072;2022-11-20T23:06:47;100482.22;;;1.49;77.15
44920;BME280;30655;53.094;6.072;2022-11-20T23:09:47;100593.69;;;2.26;77.24
